createdAt,value
2022-10-01T00:01:43.597Z,20.83
2022-10-01T00:04:46.287Z,24.42
2022-10-01T00:10:31.556Z,18.60
2022-10-01T00:13:25.712Z,19.60
2022-10-01T00:16:05.929Z,18.88
2022-10-01T00:22:44.691Z,20.23
2022-10-01T00:25:51.165Z,20.63
2022-10-01T00:29:15.614Z,22.50
2022-10-01T00:32:10.042Z,21.40
2022-10-01T00:34:56.237Z,19.42
2022-10-01T00:37:45.427Z,18.95
2022-10-01T00:40:20.318Z,19.48
2022-10-01T00:42:48.240Z,16.50
2022-10-01T00:49:07.683Z,16.30
2022-10-01T00:51:43.342Z,14.95
2022-10-01T00:54:37.197Z,13.50
2022-10-01T00:57:06.301Z,13.88
2022-10-01T00:59:52.300Z,13.95
2022-10-01T01:02:19.375Z,13.65
2022-10-01T01:04:55.585Z,13.93
2022-10-01T01:07:41.233Z,13.55
2022-10-01T01:10:09.592Z,12.25
2022-10-01T01:12:59.501Z,12.63
2022-10-01T01:16:33.639Z,12.35
2022-10-01T01:19:43.357Z,13.13
2022-10-01T01:22:11.806Z,13.07
2022-10-01T01:24:49.023Z,13.43
2022-10-01T01:27:47.680Z,13.35
2022-10-01T01:30:16.792Z,14.07
2022-10-01T01:32:48.971Z,14.60
2022-10-01T01:35:23.854Z,15.15
2022-10-01T01:37:54.823Z,14.45
2022-10-01T01:40:22.243Z,16.00
2022-10-01T01:42:50.291Z,16.15
2022-10-01T01:45:23.301Z,15.50
2022-10-01T01:47:55.429Z,16.25
2022-10-01T01:50:29.053Z,17.63
2022-10-01T01:52:56.305Z,17.85
2022-10-01T01:55:27.332Z,19.70
2022-10-01T01:57:54.565Z,21.70
2022-10-01T02:00:45.170Z,21.58
2022-10-01T02:07:05.490Z,23.33
2022-10-01T02:10:25.617Z,25.05
2022-10-01T02:13:28.228Z,25.13
2022-10-01T02:16:05.044Z,26.80
2022-10-01T02:20:21.799Z,27.17
2022-10-01T02:23:15.072Z,27.80
2022-10-01T02:26:16.556Z,28.77
2022-10-01T02:28:44.598Z,27.15
2022-10-01T02:31:15.696Z,27.50
2022-10-01T02:33:46.225Z,27.00
2022-10-01T02:36:14.383Z,27.30
2022-10-01T02:38:43.783Z,27.60
2022-10-01T02:41:14.063Z,28.63
2022-10-01T02:44:37.454Z,28.15
2022-10-01T02:48:17.060Z,26.73
2022-10-01T02:50:52.299Z,27.75
2022-10-01T02:53:37.279Z,28.67
2022-10-01T02:56:04.973Z,29.05
2022-10-01T02:59:05.195Z,28.17
2022-10-01T03:01:32.456Z,28.15
2022-10-01T03:04:00.078Z,28.23
2022-10-01T03:06:28.040Z,28.52
2022-10-01T03:08:55.150Z,28.10
2022-10-01T03:11:22.100Z,27.30
2022-10-01T03:13:49.383Z,29.10
2022-10-01T03:16:50.584Z,27.50
2022-10-01T03:19:17.759Z,28.80
2022-10-01T03:21:44.685Z,29.65
2022-10-01T03:24:11.728Z,28.58
2022-10-01T03:26:38.682Z,29.05
2022-10-01T03:29:06.312Z,28.45
2022-10-01T03:31:33.747Z,29.35
2022-10-01T03:34:06.345Z,30.23
2022-10-01T03:37:00.828Z,29.48
2022-10-01T03:39:50.157Z,29.88
2022-10-01T03:45:09.160Z,29.58
2022-10-01T03:47:42.198Z,27.40
2022-10-01T03:50:37.982Z,29.95
2022-10-01T03:53:06.627Z,28.75
2022-10-01T03:55:33.668Z,28.67
2022-10-01T03:58:01.536Z,29.55
2022-10-01T04:00:28.505Z,28.83
2022-10-01T04:02:55.415Z,29.80
2022-10-01T04:05:25.643Z,30.27
2022-10-01T04:07:52.593Z,29.60
2022-10-01T04:10:19.542Z,30.45
2022-10-01T04:12:48.983Z,30.33
2022-10-01T04:15:18.810Z,30.63
2022-10-01T04:17:46.213Z,31.73
2022-10-01T04:20:25.492Z,31.20
2022-10-01T04:22:53.373Z,32.60
2022-10-01T04:25:20.233Z,31.65
2022-10-01T04:28:16.632Z,30.55
2022-10-01T04:30:45.199Z,29.65
2022-10-01T04:33:18.436Z,29.85
2022-10-01T04:38:16.936Z,28.70
2022-10-01T04:40:48.485Z,30.42
2022-10-01T04:43:21.989Z,28.45
2022-10-01T04:46:01.638Z,30.88
2022-10-01T04:48:29.265Z,31.00
2022-10-01T04:50:56.447Z,28.17
2022-10-01T04:53:23.681Z,28.30
2022-10-01T04:55:50.891Z,28.05
2022-10-01T04:58:20.981Z,28.80
2022-10-01T05:00:50.111Z,28.52
2022-10-01T05:03:17.867Z,26.30
2022-10-01T05:05:54.746Z,27.58
2022-10-01T05:08:23.186Z,30.13
2022-10-01T05:10:50.271Z,25.20
2022-10-01T05:13:23.626Z,25.75
2022-10-01T05:15:52.498Z,24.13
2022-10-01T05:18:20.809Z,25.52
2022-10-01T05:21:11.610Z,24.10
2022-10-01T05:23:55.136Z,24.02
2022-10-01T05:26:23.127Z,23.08
2022-10-01T05:28:54.154Z,25.10
2022-10-01T05:31:21.490Z,24.02
2022-10-01T05:33:54.075Z,23.40
2022-10-01T05:36:21.149Z,24.30
2022-10-01T05:38:48.876Z,24.58
2022-10-01T05:41:16.420Z,23.25
2022-10-01T05:43:49.258Z,22.55
2022-10-01T05:46:20.158Z,24.00
2022-10-01T05:48:58.902Z,21.58
2022-10-01T05:51:30.074Z,23.40
2022-10-01T05:53:59.517Z,23.67
2022-10-01T05:56:26.756Z,23.35
2022-10-01T05:58:54.421Z,21.45
2022-10-01T06:01:37.525Z,22.20
2022-10-01T06:04:07.872Z,20.17
2022-10-01T06:06:35.602Z,21.42
2022-10-01T06:09:02.626Z,19.20
2022-10-01T06:11:35.249Z,18.50
2022-10-01T06:14:10.422Z,16.08
2022-10-01T06:17:00.609Z,15.80
2022-10-01T06:22:17.835Z,14.70
2022-10-01T06:24:45.291Z,13.48
2022-10-01T06:27:12.453Z,14.25
2022-10-01T06:29:42.695Z,12.40
2022-10-01T06:32:14.183Z,13.50
2022-10-01T06:34:41.305Z,12.20
2022-10-01T06:37:08.310Z,13.00
2022-10-01T06:39:35.104Z,12.30
2022-10-01T06:42:01.908Z,12.75
2022-10-01T06:44:28.676Z,11.35
2022-10-01T06:46:55.458Z,11.95
2022-10-01T06:49:22.793Z,11.00
2022-10-01T06:52:09.352Z,11.10
2022-10-01T06:54:36.189Z,9.43
2022-10-01T06:57:02.990Z,11.48
2022-10-01T06:59:30.658Z,11.25
2022-10-01T07:01:57.706Z,11.48
2022-10-01T07:04:25.424Z,11.82
2022-10-01T07:06:52.256Z,11.43
2022-10-01T07:09:19.089Z,11.68
2022-10-01T07:11:45.840Z,11.27
2022-10-01T07:14:12.678Z,11.52
2022-10-01T07:16:40.208Z,11.77
2022-10-01T07:19:07.250Z,10.98
2022-10-01T07:21:34.240Z,11.98
2022-10-01T07:24:01.370Z,11.15
2022-10-01T07:26:28.177Z,11.07
2022-10-01T07:28:55.249Z,11.10
2022-10-01T07:31:24.096Z,11.90
2022-10-01T07:33:57.168Z,12.07
2022-10-01T07:36:24.539Z,11.57
2022-10-01T07:38:52.168Z,12.05
2022-10-01T07:41:18.908Z,11.02
2022-10-01T07:43:46.786Z,10.73
2022-10-01T07:46:13.598Z,10.82
2022-10-01T07:48:41.270Z,10.85
2022-10-01T07:51:08.084Z,11.25
2022-10-01T07:53:34.905Z,11.25
2022-10-01T07:56:02.394Z,11.93
2022-10-01T07:58:29.499Z,11.25
2022-10-01T08:00:58.577Z,12.40
2022-10-01T08:03:25.545Z,8.70
2022-10-01T08:05:53.695Z,9.60
2022-10-01T08:08:21.374Z,9.52
2022-10-01T08:10:50.608Z,10.32
2022-10-01T08:13:17.823Z,10.95
2022-10-01T08:15:47.452Z,13.15
2022-10-01T08:18:14.692Z,14.43
2022-10-01T08:20:41.564Z,12.93
2022-10-01T08:23:13.132Z,13.35
2022-10-01T08:25:41.713Z,13.07
2022-10-01T08:28:11.216Z,13.75
2022-10-01T08:30:39.884Z,12.85
2022-10-01T08:33:08.216Z,13.02
2022-10-01T08:35:40.497Z,11.90
2022-10-01T08:38:07.831Z,11.68
2022-10-01T08:40:52.683Z,12.85
2022-10-01T08:43:25.764Z,14.32
2022-10-01T08:45:54.053Z,14.38
2022-10-01T08:48:31.119Z,13.38
2022-10-01T08:51:29.312Z,14.00
2022-10-01T08:54:03.960Z,12.77
2022-10-01T08:56:41.060Z,13.77
2022-10-01T08:59:44.603Z,13.23
2022-10-01T09:02:32.374Z,13.73
2022-10-01T09:05:02.291Z,13.32
2022-10-01T09:07:52.372Z,13.10
2022-10-01T09:10:28.170Z,13.02
2022-10-01T09:13:39.594Z,12.52
2022-10-01T09:16:16.727Z,12.50
2022-10-01T09:19:02.871Z,11.80
2022-10-01T09:21:43.354Z,11.73
2022-10-01T09:24:15.654Z,12.18
2022-10-01T09:26:51.010Z,12.65
2022-10-01T09:29:26.144Z,12.90
2022-10-01T09:31:53.621Z,12.70
2022-10-01T09:34:38.041Z,13.43
2022-10-01T09:37:32.703Z,14.63
2022-10-01T09:40:13.306Z,14.55
2022-10-01T09:42:41.067Z,14.50
2022-10-01T09:45:12.225Z,16.00
2022-10-01T09:47:43.574Z,12.98
2022-10-01T09:50:16.264Z,13.50
2022-10-01T09:52:44.494Z,12.70
2022-10-01T09:55:37.735Z,13.13
2022-10-01T09:58:09.033Z,13.20
2022-10-01T10:00:38.346Z,11.57
2022-10-01T10:03:05.908Z,11.43
2022-10-01T10:05:51.455Z,12.00
2022-10-01T10:08:44.579Z,9.85
2022-10-01T10:11:11.904Z,10.23
2022-10-01T10:13:49.689Z,9.60
2022-10-01T10:16:26.079Z,10.13
2022-10-01T10:19:00.606Z,9.73
2022-10-01T10:21:30.796Z,8.77
2022-10-01T10:24:02.226Z,8.48
2022-10-01T10:26:36.372Z,8.40
2022-10-01T10:29:06.167Z,8.20
2022-10-01T10:31:44.408Z,8.07
2022-10-01T10:34:24.182Z,8.40
2022-10-01T10:36:57.301Z,8.65
2022-10-01T10:39:27.892Z,7.80
2022-10-01T10:41:56.868Z,8.43
2022-10-01T10:44:25.659Z,8.90
2022-10-01T10:46:54.028Z,8.80
2022-10-01T10:49:29.277Z,7.97
2022-10-01T10:51:58.628Z,6.90
2022-10-01T10:54:40.248Z,6.65
2022-10-01T10:57:31.766Z,7.80
2022-10-01T11:00:00.564Z,6.57
2022-10-01T11:02:30.602Z,6.43
2022-10-01T11:05:04.831Z,7.65
2022-10-01T11:07:32.121Z,6.90
2022-10-01T11:10:17.697Z,5.97
2022-10-01T11:12:51.429Z,6.63
2022-10-01T11:15:25.188Z,6.70
2022-10-01T11:17:59.138Z,7.32
2022-10-01T11:20:38.434Z,6.60
2022-10-01T11:23:26.583Z,6.55
2022-10-01T11:26:40.906Z,7.00
2022-10-01T11:29:16.963Z,6.72
2022-10-01T11:31:58.960Z,7.68
2022-10-01T11:39:00.499Z,8.63
2022-10-01T11:41:30.947Z,7.78
2022-10-01T11:44:33.779Z,6.53
2022-10-01T11:47:16.526Z,7.00
2022-10-01T11:50:01.121Z,6.10
2022-10-01T11:52:48.349Z,5.65
2022-10-01T11:55:57.022Z,5.65
2022-10-01T11:59:00.239Z,5.60
2022-10-01T12:01:43.087Z,5.15
2022-10-01T12:04:28.456Z,4.25
2022-10-01T12:07:01.321Z,4.80
2022-10-01T12:09:55.516Z,5.47
2022-10-01T12:12:26.951Z,5.50
2022-10-01T12:14:54.233Z,7.15
2022-10-01T12:18:01.683Z,5.65
2022-10-01T12:21:23.191Z,4.65
2022-10-01T12:29:29.466Z,5.18
2022-10-01T12:32:41.734Z,5.28
2022-10-01T12:35:44.301Z,4.35
2022-10-01T12:38:46.648Z,4.88
2022-10-01T12:42:00.028Z,4.43
2022-10-01T12:44:51.093Z,3.80
2022-10-01T12:48:04.049Z,4.35
2022-10-01T12:55:33.014Z,4.68
2022-10-01T13:02:16.366Z,5.90
2022-10-01T13:05:15.622Z,4.90
2022-10-01T13:08:48.060Z,5.15
2022-10-01T13:16:46.744Z,3.88
2022-10-01T13:20:25.453Z,4.35
2022-10-01T13:23:16.691Z,3.97
2022-10-01T13:26:26.405Z,4.68
2022-10-01T13:46:37.930Z,2.88
2022-10-01T13:59:58.851Z,4.45
2022-10-01T14:02:35.156Z,3.90
2022-10-01T14:05:23.163Z,3.38
2022-10-01T14:07:59.004Z,2.45
2022-10-01T14:10:35.202Z,1.90
2022-10-01T14:13:22.070Z,1.85
2022-10-01T14:16:00.438Z,2.28
2022-10-01T14:18:32.819Z,2.17
2022-10-01T14:21:49.380Z,2.47
2022-10-01T14:24:43.504Z,2.35
2022-10-01T14:27:33.598Z,2.15
2022-10-01T14:30:12.335Z,1.60
2022-10-01T14:33:09.599Z,2.00
2022-10-01T14:35:44.441Z,1.88
2022-10-01T14:38:15.757Z,1.98
2022-10-01T14:40:47.191Z,2.63
2022-10-01T14:43:25.262Z,9.27
2022-10-01T14:46:06.332Z,6.50
2022-10-01T14:48:35.880Z,1.88
2022-10-01T14:51:06.313Z,1.92
2022-10-01T14:53:36.771Z,1.50
2022-10-01T14:56:08.597Z,1.80
2022-10-01T14:58:40.111Z,2.00
2022-10-01T15:01:08.092Z,2.05
2022-10-01T15:03:39.908Z,1.50
2022-10-01T15:06:26.110Z,1.50
2022-10-01T15:08:55.397Z,1.58
2022-10-01T15:11:25.261Z,1.50
2022-10-01T15:13:55.810Z,1.60
2022-10-01T15:16:25.706Z,1.83
2022-10-01T15:19:03.779Z,1.48
2022-10-01T15:21:41.656Z,1.45
2022-10-01T15:24:22.515Z,1.30
2022-10-01T15:26:52.656Z,1.77
2022-10-01T15:29:36.407Z,1.20
2022-10-01T15:32:07.420Z,1.38
2022-10-01T15:34:35.488Z,1.33
2022-10-01T15:37:03.771Z,1.30
2022-10-01T15:39:33.481Z,1.13
2022-10-01T15:42:25.921Z,1.60
2022-10-01T15:45:24.000Z,1.45
2022-10-01T15:47:57.273Z,1.17
2022-10-01T15:50:28.235Z,1.40
2022-10-01T15:53:10.730Z,1.77
2022-10-01T15:55:42.784Z,1.60
2022-10-01T15:58:10.678Z,1.92
2022-10-01T16:00:50.289Z,1.80
2022-10-01T16:03:23.510Z,1.48
2022-10-01T16:05:58.714Z,1.55
2022-10-01T16:08:34.642Z,1.80
2022-10-01T16:11:20.082Z,1.73
2022-10-01T16:13:50.452Z,1.65
2022-10-01T16:16:24.656Z,3.00
2022-10-01T16:19:00.549Z,22.27
2022-10-01T16:21:28.157Z,9.68
2022-10-01T16:23:56.224Z,16.00
2022-10-01T16:26:29.903Z,12.68
2022-10-01T16:31:26.842Z,2.22
2022-10-01T16:33:55.494Z,1.90
2022-10-01T16:36:38.981Z,1.70
2022-10-01T16:39:06.680Z,1.80
2022-10-01T16:41:35.561Z,2.63
2022-10-01T16:44:05.126Z,2.20
2022-10-01T16:46:36.947Z,1.85
2022-10-01T16:49:15.564Z,1.92
2022-10-01T16:51:43.745Z,2.67
2022-10-01T16:54:24.910Z,2.45
2022-10-01T16:56:55.433Z,3.22
2022-10-01T16:59:23.901Z,2.13
2022-10-01T17:01:55.851Z,2.17
2022-10-01T17:04:23.503Z,2.00
2022-10-01T17:06:50.947Z,2.40
2022-10-01T17:09:18.263Z,2.40
2022-10-01T17:11:46.531Z,3.15
2022-10-01T17:14:17.030Z,3.35
2022-10-01T17:16:45.413Z,2.22
2022-10-01T17:19:19.240Z,2.30
2022-10-01T17:21:46.867Z,2.60
2022-10-01T17:24:14.779Z,2.72
2022-10-01T17:26:43.192Z,2.70
2022-10-01T17:29:10.834Z,3.22
2022-10-01T17:31:51.843Z,2.70
2022-10-01T17:34:29.417Z,2.03
2022-10-01T17:37:01.771Z,2.92
2022-10-01T17:43:41.729Z,2.90
2022-10-01T17:46:29.507Z,2.65
2022-10-01T17:49:16.154Z,2.50
2022-10-01T17:52:14.951Z,1.98
2022-10-01T17:55:21.183Z,2.40
2022-10-01T17:58:00.126Z,1.92
2022-10-01T18:07:33.745Z,2.50
2022-10-01T18:10:48.337Z,1.90
2022-10-01T18:15:05.468Z,1.70
2022-10-01T18:24:37.487Z,2.00
2022-10-01T18:27:39.499Z,1.75
2022-10-01T18:30:18.779Z,2.25
2022-10-01T18:34:04.126Z,2.08
2022-10-01T18:41:46.222Z,1.60
2022-10-01T18:45:24.179Z,1.70
2022-10-01T18:47:56.178Z,2.20
2022-10-01T18:55:51.592Z,2.35
2022-10-01T18:59:56.085Z,1.95
2022-10-01T19:03:27.015Z,1.85
2022-10-01T19:07:55.512Z,2.00
2022-10-01T19:11:53.186Z,1.60
2022-10-01T19:15:02.666Z,1.50
2022-10-01T19:18:03.621Z,3.50
2022-10-01T19:25:48.148Z,1.77
2022-10-01T19:29:07.426Z,1.73
2022-10-01T19:32:17.689Z,1.80
2022-10-01T19:35:15.757Z,2.20
2022-10-01T19:38:17.556Z,2.05
2022-10-01T19:45:20.977Z,5.32
2022-10-01T20:01:04.377Z,2.63
2022-10-01T20:10:40.154Z,2.08
2022-10-01T20:25:35.786Z,3.80
2022-10-01T20:28:54.472Z,3.20
2022-10-01T20:31:39.911Z,3.28
2022-10-01T20:35:06.406Z,3.53
2022-10-01T20:39:42.988Z,2.85
2022-10-01T20:42:27.938Z,2.17
2022-10-01T20:45:02.253Z,2.22
2022-10-01T20:54:33.736Z,2.22
2022-10-01T20:57:26.135Z,2.78
2022-10-01T20:59:55.532Z,2.20
2022-10-01T21:07:15.650Z,2.20
2022-10-01T21:10:55.892Z,3.42
2022-10-01T21:14:22.855Z,3.17
2022-10-01T21:17:49.334Z,3.30
2022-10-01T21:21:09.532Z,2.35
2022-10-01T21:24:41.891Z,2.17
2022-10-01T21:28:08.399Z,2.20
2022-10-01T21:31:50.231Z,1.90
2022-10-01T21:35:47.601Z,1.67
2022-10-01T21:38:54.396Z,2.50
2022-10-01T21:41:29.785Z,2.25
2022-10-01T21:44:11.386Z,2.27
2022-10-01T21:47:38.695Z,2.42
2022-10-01T21:51:06.119Z,2.20
2022-10-01T21:53:45.675Z,2.08
2022-10-01T21:56:20.533Z,3.65
2022-10-01T22:03:35.656Z,2.55
2022-10-01T22:10:31.859Z,4.30
2022-10-01T22:13:03.524Z,2.70
2022-10-01T22:15:39.871Z,2.95
2022-10-01T22:19:00.108Z,2.03
2022-10-01T22:25:31.118Z,2.42
2022-10-01T22:31:34.302Z,2.28
2022-10-01T22:34:46.470Z,2.42
2022-10-01T22:37:23.349Z,2.30
2022-10-01T22:39:56.577Z,2.20
2022-10-01T22:42:30.605Z,1.98
2022-10-01T22:45:04.504Z,1.80
2022-10-01T22:47:53.220Z,1.63
2022-10-01T22:51:19.769Z,1.80
2022-10-01T22:57:34.353Z,1.83
2022-10-01T23:00:36.180Z,1.88
2022-10-01T23:03:16.526Z,1.75
2022-10-01T23:06:13.726Z,1.40
2022-10-01T23:09:14.735Z,2.00
2022-10-01T23:12:22.944Z,1.40
2022-10-01T23:15:16.480Z,1.60
2022-10-01T23:17:56.778Z,1.80
2022-10-01T23:20:36.534Z,5.53
2022-10-01T23:24:02.181Z,2.20
2022-10-01T23:26:47.145Z,1.60
2022-10-01T23:30:20.258Z,1.60
2022-10-01T23:33:29.863Z,1.55
2022-10-01T23:37:24.093Z,1.60
2022-10-01T23:40:08.185Z,1.60
2022-10-01T23:42:54.093Z,1.70
2022-10-01T23:45:41.152Z,1.80
2022-10-01T23:49:03.567Z,1.50
2022-10-01T23:51:54.079Z,1.67
